Time;durP1;ratioP1;P1;durP2;ratioP2;P2;SDS_P1;SDS_P2;PMS_P1;PMS_P2;Temp;Humidity;BMP_temperature;BMP_pressure;BME280_temperature;BME280_humidity;BME280_pressure;Samples;Min_cycle;Max_cycle;Signal;HPM_P1;HPM_P2
2022/09/29 00:00:35;;;;;;;2.50;1.80;;;11.00;99.90;;;;;;7394563;19;20135;-76
2022/09/29 00:03:02;;;;;;;2.23;1.73;;;11.00;99.90;;;;;;7392213;19;20484;-76
2022/09/29 00:05:28;;;;;;;4.43;2.00;;;11.00;99.90;;;;;;7394181;19;20135;-76
2022/09/29 00:07:53;;;;;;;2.97;1.90;;;11.00;99.90;;;;;;7393937;19;20137;-76
2022/09/29 00:10:19;;;;;;;2.00;1.57;;;11.00;99.90;;;;;;7386529;19;20130;-77
2022/09/29 00:12:45;;;;;;;2.37;1.83;;;11.10;99.90;;;;;;7392452;19;20146;-74
2022/09/29 00:15:11;;;;;;;3.17;2.00;;;11.10;99.90;;;;;;7392023;19;20203;-74
2022/09/29 00:17:36;;;;;;;2.27;1.87;;;10.70;99.90;;;;;;7391046;19;20164;-76
2022/09/29 00:20:03;;;;;;;3.50;1.77;;;10.90;99.90;;;;;;7390432;19;20553;-76
2022/09/29 00:22:29;;;;;;;3.93;1.80;;;11.00;99.90;;;;;;7393105;19;20134;-76
2022/09/29 00:24:55;;;;;;;1.97;1.77;;;11.10;99.90;;;;;;7391371;19;20167;-76
2022/09/29 00:27:21;;;;;;;6.13;2.00;;;11.00;99.90;;;;;;7390772;19;20256;-75
2022/09/29 00:29:47;;;;;;;2.03;1.60;;;10.90;99.90;;;;;;7390070;19;20603;-75
2022/09/29 00:32:13;;;;;;;3.10;1.90;;;11.00;99.90;;;;;;7390666;19;20178;-76
2022/09/29 00:34:39;;;;;;;4.43;2.00;;;11.20;99.90;;;;;;7390428;19;20142;-76
2022/09/29 00:37:05;;;;;;;4.83;1.80;;;11.40;99.90;;;;;;7392889;19;20143;-76
2022/09/29 00:39:31;;;;;;;2.73;2.00;;;11.20;99.90;;;;;;7389291;19;20135;-76
2022/09/29 00:41:57;;;;;;;3.63;2.03;;;11.40;99.90;;;;;;7392417;19;20139;-75
2022/09/29 00:44:53;;;;;;;3.57;1.73;;;11.50;99.90;;;;;;7391272;19;20166;-76
2022/09/29 00:47:20;;;;;;;3.40;2.10;;;11.60;99.90;;;;;;7388972;19;20154;-77
2022/09/29 00:49:53;;;;;;;2.63;1.70;;;11.70;99.90;;;;;;7389268;19;20415;-76
2022/09/29 00:52:24;;;;;;;3.17;1.70;;;11.10;99.90;;;;;;7392118;19;20861;-77
2022/09/29 00:55:02;;;;;;;2.03;1.63;;;10.80;99.90;;;;;;7392094;19;20230;-76
2022/09/29 00:57:34;;;;;;;2.87;1.83;;;10.60;99.90;;;;;;7391892;19;20142;-76
2022/09/29 01:00:02;;;;;;;5.30;1.93;;;10.90;99.90;;;;;;7387213;19;20171;-75
2022/09/29 01:02:30;;;;;;;2.67;2.00;;;11.10;99.90;;;;;;7390614;19;20155;-75
2022/09/29 01:04:57;;;;;;;4.33;1.80;;;11.30;99.90;;;;;;7391084;19;20162;-76
2022/09/29 01:07:26;;;;;;;4.10;2.10;;;10.80;99.90;;;;;;7389027;19;20142;-76
2022/09/29 01:09:55;;;;;;;3.90;2.00;;;10.80;99.90;;;;;;7389509;19;20142;-76
2022/09/29 01:12:21;;;;;;;2.03;1.53;;;10.80;99.90;;;;;;7388240;19;20892;-75
2022/09/29 01:14:47;;;;;;;2.63;1.67;;;11.00;99.90;;;;;;7390835;19;20138;-76
2022/09/29 01:17:13;;;;;;;2.90;1.70;;;11.10;99.90;;;;;;7388966;19;20142;-76
2022/09/29 01:19:39;;;;;;;2.37;1.90;;;11.10;99.90;;;;;;7388953;19;20204;-75
2022/09/29 01:22:27;;;;;;;4.03;2.00;;;11.30;99.90;;;;;;7391693;19;20138;-76
2022/09/29 01:24:57;;;;;;;3.90;1.50;;;11.50;99.90;;;;;;7383710;19;20174;-76
2022/09/29 01:28:07;;;;;;;3.43;2.30;;;11.30;99.90;;;;;;7389819;19;20800;-76
2022/09/29 01:30:48;;;;;;;3.67;2.00;;;11.50;99.90;;;;;;7391198;19;20175;-76
2022/09/29 01:33:35;;;;;;;3.40;2.03;;;11.60;99.90;;;;;;7390882;19;20156;-76
2022/09/29 01:36:19;;;;;;;5.77;1.70;;;11.80;99.90;;;;;;7391608;19;20165;-76
2022/09/29 01:38:59;;;;;;;2.13;1.43;;;11.80;99.90;;;;;;7387279;19;20134;-76
2022/09/29 01:41:32;;;;;;;3.00;2.00;;;11.80;99.90;;;;;;7387530;19;20143;-75
2022/09/29 01:44:24;;;;;;;2.87;2.17;;;11.90;99.90;;;;;;7387549;19;20161;-75
2022/09/29 01:46:58;;;;;;;2.23;1.70;;;11.90;99.90;;;;;;7390784;19;20135;-75
2022/09/29 01:49:29;;;;;;;3.67;1.67;;;11.80;99.90;;;;;;7387414;19;20135;-75
2022/09/29 01:52:00;;;;;;;3.17;1.80;;;11.70;99.90;;;;;;7389015;19;20210;-75
2022/09/29 01:54:35;;;;;;;2.87;1.97;;;11.70;99.90;;;;;;7387336;19;20667;-75
2022/09/29 01:57:08;;;;;;;4.03;2.00;;;11.80;99.90;;;;;;7391418;19;20181;-75
2022/09/29 01:59:42;;;;;;;2.13;1.80;;;11.90;99.90;;;;;;7384912;19;20138;-75
2022/09/29 02:02:13;;;;;;;2.70;1.63;;;11.90;99.90;;;;;;7394131;19;20168;-75
2022/09/29 02:05:08;;;;;;;4.10;1.90;;;11.80;99.90;;;;;;7397549;19;20607;-75
2022/09/29 02:07:39;;;;;;;1.63;1.53;;;10.90;99.90;;;;;;7394393;19;20174;-76
2022/09/29 02:10:34;;;;;;;2.30;1.57;;;10.90;99.90;;;;;;7395049;19;20138;-76
2022/09/29 02:13:05;;;;;;;2.33;1.40;;;11.10;99.90;;;;;;7394397;19;20147;-76
2022/09/29 02:15:35;;;;;;;4.17;2.00;;;11.30;99.90;;;;;;7396116;19;20135;-75
2022/09/29 02:18:12;;;;;;;2.53;1.87;;;11.50;99.90;;;;;;7395568;19;20139;-75
2022/09/29 02:20:38;;;;;;;1.90;1.40;;;11.60;99.90;;;;;;7393851;19;20134;-82
2022/09/29 02:23:04;;;;;;;6.13;1.93;;;11.50;99.90;;;;;;7395298;19;20138;-81
2022/09/29 02:25:35;;;;;;;2.90;1.57;;;11.50;99.90;;;;;;7392135;19;20154;-82
2022/09/29 02:28:01;;;;;;;3.37;1.63;;;11.50;99.90;;;;;;7394192;19;20596;-81
2022/09/29 02:30:27;;;;;;;3.67;1.80;;;11.20;99.90;;;;;;7393300;19;20158;-83
2022/09/29 02:32:52;;;;;;;2.37;1.50;;;10.90;99.90;;;;;;7395835;19;20139;-82
2022/09/29 02:35:18;;;;;;;3.13;1.80;;;10.70;99.90;;;;;;7395060;19;20135;-81
2022/09/29 02:37:56;;;;;;;2.43;1.50;;;10.60;99.90;;;;;;7394721;19;20691;-81
2022/09/29 02:40:30;;;;;;;2.37;1.73;;;10.70;99.90;;;;;;7395218;19;20146;-82
2022/09/29 02:43:15;;;;;;;3.10;1.80;;;10.80;99.90;;;;;;7396799;19;20742;-82
2022/09/29 02:45:55;;;;;;;1.67;1.47;;;11.00;99.90;;;;;;7396508;19;20143;-81
2022/09/29 02:48:35;;;;;;;3.00;1.87;;;11.30;99.90;;;;;;7393650;19;20169;-80
2022/09/29 02:51:04;;;;;;;4.00;1.90;;;11.50;99.90;;;;;;7396651;19;20143;-80
2022/09/29 02:53:51;;;;;;;3.27;1.50;;;11.40;99.90;;;;;;7395102;19;20146;-80
2022/09/29 02:56:48;;;;;;;2.97;1.80;;;11.10;99.90;;;;;;7392957;19;20146;-80
2022/09/29 02:59:29;;;;;;;2.87;1.90;;;10.80;99.90;;;;;;7391800;19;20150;-82
2022/09/29 03:01:56;;;;;;;2.57;1.97;;;10.90;99.90;;;;;;7393459;19;20202;-82
2022/09/29 03:04:24;;;;;;;2.43;1.73;;;11.10;99.90;;;;;;7395076;19;20149;-82
2022/09/29 03:06:51;;;;;;;2.30;1.47;;;11.00;99.90;;;;;;7394820;19;20149;-81
2022/09/29 03:09:17;;;;;;;2.83;1.80;;;11.40;99.90;;;;;;7393181;19;20146;-82
2022/09/29 03:11:43;;;;;;;2.77;1.67;;;11.60;99.90;;;;;;7395608;19;20152;-82
2022/09/29 03:14:09;;;;;;;2.03;1.80;;;11.70;99.90;;;;;;7393590;19;20154;-82
2022/09/29 03:16:36;;;;;;;3.60;1.93;;;11.70;99.90;;;;;;7393781;19;20159;-81
2022/09/29 03:19:04;;;;;;;1.83;1.63;;;11.80;99.90;;;;;;7390903;19;20158;-81
2022/09/29 03:21:30;;;;;;;2.23;1.93;;;11.70;99.90;;;;;;7394477;19;20145;-81
2022/09/29 03:23:56;;;;;;;2.80;1.90;;;11.60;99.90;;;;;;7394121;19;20142;-82
2022/09/29 03:26:22;;;;;;;2.47;1.70;;;11.70;99.90;;;;;;7393387;19;20151;-82
2022/09/29 03:28:52;;;;;;;2.50;1.70;;;11.20;99.90;;;;;;7391464;19;20150;-83
2022/09/29 03:31:18;;;;;;;1.77;1.50;;;11.00;99.90;;;;;;7393478;19;20532;-81
2022/09/29 03:33:44;;;;;;;4.63;1.70;;;10.70;99.90;;;;;;7392516;19;20161;-82
2022/09/29 03:36:10;;;;;;;3.30;1.57;;;10.70;99.90;;;;;;7395007;19;20138;-82
2022/09/29 03:38:37;;;;;;;2.60;1.67;;;10.80;99.90;;;;;;7392210;19;20134;-81
2022/09/29 03:41:04;;;;;;;2.33;1.43;;;11.00;99.90;;;;;;7395162;19;20147;-82
2022/09/29 03:43:30;;;;;;;2.97;1.77;;;11.30;99.90;;;;;;7392320;19;20138;-81
2022/09/29 03:45:56;;;;;;;5.33;1.63;;;11.50;99.90;;;;;;7393045;19;20131;-82
2022/09/29 03:48:23;;;;;;;3.07;2.03;;;11.80;99.90;;;;;;7390453;19;20262;-81
2022/09/29 03:50:51;;;;;;;4.67;1.70;;;11.70;99.90;;;;;;7392155;19;20135;-82
2022/09/29 03:53:16;;;;;;;1.63;1.40;;;11.80;99.90;;;;;;7390950;19;20145;-82
2022/09/29 03:55:46;;;;;;;2.80;1.80;;;11.00;99.90;;;;;;7393583;19;20139;-82
2022/09/29 03:58:12;;;;;;;2.50;1.60;;;10.90;99.90;;;;;;7392259;19;20168;-81
2022/09/29 04:00:38;;;;;;;3.10;1.80;;;10.70;99.90;;;;;;7392565;19;20460;-81
2022/09/29 04:03:04;;;;;;;3.87;1.97;;;10.50;99.90;;;;;;7392995;19;20579;-81
2022/09/29 04:05:30;;;;;;;2.60;1.80;;;10.40;99.90;;;;;;7390715;19;20131;-80
2022/09/29 04:07:55;;;;;;;2.77;1.97;;;10.60;99.90;;;;;;7391111;19;20157;-82
2022/09/29 04:10:21;;;;;;;2.00;1.60;;;10.60;99.90;;;;;;7393015;19;20264;-81
2022/09/29 04:12:47;;;;;;;3.43;2.00;;;10.40;99.90;;;;;;7391428;19;20166;-81
2022/09/29 04:15:13;;;;;;;4.70;2.37;;;10.60;99.90;;;;;;7394041;19;20138;-81
2022/09/29 04:17:39;;;;;;;3.30;1.93;;;10.80;99.90;;;;;;7390399;19;20194;-81
2022/09/29 04:20:06;;;;;;;2.60;1.93;;;10.50;99.90;;;;;;7391341;19;20161;-81
2022/09/29 04:22:32;;;;;;;3.43;2.03;;;10.40;99.90;;;;;;7390608;19;20142;-80
2022/09/29 04:24:58;;;;;;;2.17;1.60;;;10.30;99.90;;;;;;7389784;19;20205;-81
2022/09/29 04:27:24;;;;;;;3.53;2.07;;;10.20;99.90;;;;;;7390836;19;20604;-81
2022/09/29 04:29:50;;;;;;;6.30;2.53;;;10.60;99.90;;;;;;7390046;19;20149;-82
2022/09/29 04:32:15;;;;;;;5.23;2.40;;;10.90;99.90;;;;;;7391922;19;20543;-79
2022/09/29 04:34:43;;;;;;;3.47;2.10;;;10.90;99.90;;;;;;7392292;19;20157;-80
2022/09/29 04:37:10;;;;;;;3.20;2.00;;;10.70;99.90;;;;;;7393894;19;20209;-82
2022/09/29 04:39:36;;;;;;;2.13;1.73;;;10.40;99.90;;;;;;7390237;19;20576;-81
2022/09/29 04:42:02;;;;;;;2.30;1.60;;;10.40;99.90;;;;;;7390139;19;20213;-82
2022/09/29 04:44:27;;;;;;;2.37;1.63;;;10.60;99.90;;;;;;7390685;19;20615;-82
2022/09/29 04:46:53;;;;;;;4.17;1.63;;;10.60;99.90;;;;;;7392273;19;20130;-82
2022/09/29 04:49:19;;;;;;;1.50;1.40;;;10.70;99.90;;;;;;7388599;19;20139;-81
2022/09/29 04:51:45;;;;;;;2.50;1.63;;;10.60;99.90;;;;;;7391073;19;20143;-81
2022/09/29 04:54:11;;;;;;;2.90;1.57;;;10.40;99.90;;;;;;7389948;19;20225;-81
2022/09/29 04:56:37;;;;;;;3.33;1.87;;;10.60;99.90;;;;;;7391516;19;20544;-81
2022/09/29 04:59:03;;;;;;;2.73;1.60;;;11.00;99.90;;;;;;7390541;19;20151;-80
2022/09/29 05:01:29;;;;;;;2.13;1.60;;;10.90;99.90;;;;;;7389949;19;20134;-80
2022/09/29 05:03:55;;;;;;;2.90;1.70;;;11.00;99.90;;;;;;7389979;19;20569;-79
2022/09/29 05:06:21;;;;;;;2.13;1.67;;;10.90;99.90;;;;;;7391042;19;20168;-80
2022/09/29 05:08:48;;;;;;;2.20;1.90;;;10.50;99.90;;;;;;7390468;19;20508;-81
2022/09/29 05:11:14;;;;;;;2.87;1.67;;;10.30;99.90;;;;;;7387840;19;20621;-82
2022/09/29 05:13:39;;;;;;;2.67;1.57;;;10.30;99.90;;;;;;7389753;19;20156;-82
2022/09/29 05:16:05;;;;;;;2.70;1.93;;;10.50;99.90;;;;;;7389272;19;20174;-81
2022/09/29 05:18:32;;;;;;;2.70;2.10;;;10.80;99.90;;;;;;7388736;19;20153;-81
2022/09/29 05:21:05;;;;;;;3.27;1.87;;;10.90;99.90;;;;;;7392486;19;20239;-81
2022/09/29 05:23:32;;;;;;;2.30;1.70;;;10.80;99.90;;;;;;7396733;19;20143;-80
2022/09/29 05:26:08;;;;;;;2.70;1.93;;;10.90;99.90;;;;;;7386548;19;20496;-81
2022/09/29 05:28:34;;;;;;;2.73;1.80;;;11.00;99.90;;;;;;7388590;19;20157;-81
2022/09/29 05:31:06;;;;;;;1.97;1.73;;;11.10;99.90;;;;;;7388524;19;20468;-80
2022/09/29 05:33:32;;;;;;;6.00;1.93;;;11.20;99.90;;;;;;7386431;19;20670;-81
2022/09/29 05:35:59;;;;;;;4.50;2.27;;;11.20;99.90;;;;;;7390811;19;20135;-84
2022/09/29 05:38:25;;;;;;;4.80;1.93;;;11.00;99.90;;;;;;7398177;19;20142;-83
2022/09/29 05:40:52;;;;;;;3.60;1.70;;;10.80;99.90;;;;;;7399201;19;20142;-82
2022/09/29 05:43:19;;;;;;;3.73;2.13;;;10.70;99.90;;;;;;7399301;19;20587;-87
2022/09/29 05:45:45;;;;;;;2.80;1.73;;;10.20;99.90;;;;;;7401256;19;20159;-85
2022/09/29 05:48:10;;;;;;;3.27;2.20;;;10.20;99.90;;;;;;7399330;19;20131;-86
2022/09/29 05:50:42;;;;;;;2.73;1.80;;;10.50;99.90;;;;;;7400140;19;20158;-85
2022/09/29 05:53:09;;;;;;;2.73;1.83;;;10.80;99.90;;;;;;7400079;19;20171;-85
2022/09/29 05:55:37;;;;;;;5.23;2.23;;;10.60;99.90;;;;;;7398462;19;20139;-84
2022/09/29 05:58:04;;;;;;;5.20;2.57;;;10.80;99.90;;;;;;7397287;19;20155;-84
2022/09/29 06:00:32;;;;;;;3.85;2.47;;;11.00;99.90;;;;;;7394539;19;20395;-84
2022/09/29 06:03:01;;;;;;;4.43;3.03;;;11.20;99.90;;;;;;7398420;19;20147;-85
2022/09/29 06:05:28;;;;;;;4.83;2.53;;;11.30;99.90;;;;;;7398209;19;20155;-84
2022/09/29 06:07:55;;;;;;;4.77;2.87;;;11.40;99.90;;;;;;7399661;19;20166;-83
2022/09/29 06:10:21;;;;;;;5.73;2.63;;;11.70;99.90;;;;;;7400276;19;20134;-82
2022/09/29 06:12:47;;;;;;;3.63;2.73;;;11.20;99.90;;;;;;7400664;19;20151;-84
2022/09/29 06:15:13;;;;;;;4.60;2.97;;;11.20;99.90;;;;;;7399608;19;20218;-84
2022/09/29 06:17:38;;;;;;;5.53;2.60;;;11.10;99.90;;;;;;7401447;19;20151;-85
2022/09/29 06:20:05;;;;;;;2.70;2.00;;;11.30;99.90;;;;;;7398125;19;20137;-83
2022/09/29 06:22:32;;;;;;;5.33;2.20;;;11.40;99.90;;;;;;7401900;19;20490;-84
2022/09/29 06:24:58;;;;;;;3.40;2.20;;;11.50;99.90;;;;;;7398059;19;20147;-87
2022/09/29 06:27:24;;;;;;;3.77;2.10;;;11.50;99.90;;;;;;7402016;19;20660;-84
2022/09/29 06:29:50;;;;;;;5.60;2.20;;;11.80;99.90;;;;;;7401430;19;20167;-83
2022/09/29 06:32:16;;;;;;;5.43;3.60;;;11.50;99.90;;;;;;7399245;19;20202;-86
2022/09/29 06:37:35;;;;;;;5.43;2.97;;;11.60;99.90;;;;;;7399007;19;20474;-85
2022/09/29 06:40:11;;;;;;;4.87;2.73;;;11.60;99.90;;;;;;7394428;19;20161;-85
2022/09/29 06:42:37;;;;;;;11.97;2.70;;;11.40;99.90;;;;;;7394301;19;20146;-86
2022/09/29 06:45:06;;;;;;;7.47;3.20;;;11.50;99.90;;;;;;7400688;19;20144;-78
2022/09/29 06:47:32;;;;;;;5.37;3.03;;;11.60;99.90;;;;;;7392039;19;20135;-79
2022/09/29 06:50:00;;;;;;;3.57;2.30;;;11.60;99.90;;;;;;7390240;19;20147;-80
2022/09/29 06:52:26;;;;;;;4.60;2.60;;;11.60;99.90;;;;;;7394614;19;20178;-79
2022/09/29 06:54:52;;;;;;;5.43;2.53;;;11.60;99.90;;;;;;7395717;19;20607;-80
2022/09/29 06:57:18;;;;;;;5.70;2.93;;;11.60;99.90;;;;;;7391103;19;20588;-80
2022/09/29 06:59:44;;;;;;;3.47;2.10;;;11.70;99.90;;;;;;7385843;19;20123;-79
2022/09/29 07:02:15;;;;;;;4.37;2.70;;;11.60;99.90;;;;;;7385113;19;20134;-80
2022/09/29 07:04:41;;;;;;;4.67;2.60;;;11.60;99.90;;;;;;7389487;19;20139;-80
2022/09/29 07:07:07;;;;;;;3.90;2.27;;;11.70;99.90;;;;;;7389418;19;20150;-81
2022/09/29 07:09:33;;;;;;;3.93;2.20;;;11.80;99.90;;;;;;7386112;19;20146;-79
2022/09/29 07:11:59;;;;;;;4.43;2.77;;;11.90;99.90;;;;;;7388410;19;20515;-79
2022/09/29 07:14:25;;;;;;;2.77;2.13;;;11.90;99.90;;;;;;7388745;19;20181;-80
2022/09/29 07:16:51;;;;;;;4.83;2.33;;;11.90;99.90;;;;;;7394952;19;20150;-79
2022/09/29 07:19:18;;;;;;;2.63;2.10;;;12.00;99.90;;;;;;7393496;19;20564;-79
2022/09/29 07:21:45;;;;;;;3.77;2.70;;;12.00;99.90;;;;;;7396178;19;21596;-80
2022/09/29 07:24:11;;;;;;;6.67;2.93;;;12.00;99.90;;;;;;7393496;19;20209;-80
2022/09/29 07:26:36;;;;;;;3.80;2.20;;;11.80;99.90;;;;;;7393372;19;20139;-79
2022/09/29 07:29:02;;;;;;;5.13;2.60;;;12.00;99.90;;;;;;7394355;19;20479;-81
2022/09/29 07:31:30;;;;;;;3.30;2.30;;;12.10;99.90;;;;;;7392014;19;20534;-79
2022/09/29 07:33:55;;;;;;;5.33;2.50;;;12.00;99.90;;;;;;7393659;19;20158;-79
2022/09/29 07:36:21;;;;;;;3.20;2.60;;;12.00;99.90;;;;;;7393976;19;20135;-79
2022/09/29 07:38:50;;;;;;;4.70;3.20;;;12.10;99.90;;;;;;7388643;19;20135;-78
2022/09/29 07:41:18;;;;;;;4.50;3.27;;;12.20;99.90;;;;;;7392049;19;20508;-79
2022/09/29 07:43:45;;;;;;;4.20;2.70;;;12.30;99.90;;;;;;7399634;19;20139;-78
2022/09/29 07:46:11;;;;;;;3.43;2.43;;;12.30;99.90;;;;;;7394259;19;20146;-79
2022/09/29 07:48:37;;;;;;;4.00;2.87;;;12.30;99.90;;;;;;7391739;19;20604;-78
2022/09/29 07:51:06;;;;;;;7.07;2.70;;;12.30;99.90;;;;;;7391679;19;20154;-78
2022/09/29 07:53:33;;;;;;;4.53;3.07;;;12.30;99.90;;;;;;7391611;19;20138;-79
2022/09/29 07:56:12;;;;;;;6.90;4.40;;;12.20;99.90;;;;;;7389720;19;20155;-79
2022/09/29 07:58:39;;;;;;;8.23;3.23;;;12.10;99.90;;;;;;7386943;19;20161;-79
2022/09/29 08:01:09;;;;;;;4.93;2.70;;;12.10;99.90;;;;;;7393436;19;20843;-78
2022/09/29 08:03:36;;;;;;;5.50;3.00;;;12.30;99.90;;;;;;7390972;19;20165;-79
2022/09/29 08:06:02;;;;;;;7.10;2.50;;;12.40;99.90;;;;;;7392579;19;20143;-79
2022/09/29 08:08:28;;;;;;;8.47;2.63;;;12.50;99.90;;;;;;7391619;19;20490;-78
2022/09/29 08:11:02;;;;;;;5.47;2.57;;;12.60;99.90;;;;;;7390469;19;20147;-78
2022/09/29 08:13:30;;;;;;;5.60;2.67;;;12.60;99.90;;;;;;7390564;19;20229;-78
2022/09/29 08:15:59;;;;;;;5.23;2.20;;;12.70;99.90;;;;;;7390601;19;20494;-78
2022/09/29 08:18:26;;;;;;;4.70;2.60;;;12.80;99.90;;;;;;7388579;19;20234;-78
2022/09/29 08:20:55;;;;;;;3.33;2.20;;;12.80;99.90;;;;;;7390071;19;20233;-78
2022/09/29 08:23:22;;;;;;;4.63;2.77;;;12.80;99.90;;;;;;7392154;19;20818;-79
2022/09/29 08:25:48;;;;;;;5.67;3.40;;;12.80;99.90;;;;;;7390547;19;20162;-78
2022/09/29 08:28:14;;;;;;;4.73;3.03;;;13.00;99.90;;;;;;7388401;19;20146;-78
2022/09/29 08:30:40;;;;;;;3.20;2.43;;;12.90;99.90;;;;;;7389471;19;20139;-78
2022/09/29 08:33:13;;;;;;;3.37;2.20;;;12.80;99.90;;;;;;7391102;19;20165;-80
2022/09/29 08:35:40;;;;;;;3.70;2.93;;;12.90;99.90;;;;;;7388676;19;20154;-78
2022/09/29 08:38:06;;;;;;;2.87;2.50;;;13.00;99.90;;;;;;7390771;19;20596;-79
2022/09/29 08:40:32;;;;;;;10.23;6.13;;;13.00;99.90;;;;;;7389702;19;20148;-80
2022/09/29 08:43:29;;;;;;;7.77;3.57;;;13.10;99.90;;;;;;7391985;19;20160;-78
2022/09/29 08:46:05;;;;;;;9.57;3.73;;;13.30;99.90;;;;;;7393015;19;20142;-78
2022/09/29 08:48:38;;;;;;;6.80;3.00;;;13.30;99.90;;;;;;7390831;19;20747;-77
2022/09/29 08:51:07;;;;;;;5.30;2.70;;;13.20;99.90;;;;;;7391816;19;20135;-78
2022/09/29 08:53:38;;;;;;;4.27;3.40;;;13.30;99.90;;;;;;7391262;19;20147;-79
2022/09/29 08:56:08;;;;;;;4.10;2.90;;;13.30;99.90;;;;;;7388944;19;20157;-78
2022/09/29 08:58:37;;;;;;;4.10;2.70;;;13.40;99.90;;;;;;7388750;19;20230;-80
2022/09/29 09:01:21;;;;;;;4.30;2.40;;;13.60;99.90;;;;;;7389031;19;20141;-80
2022/09/29 09:03:56;;;;;;;4.75;2.72;;;13.50;99.90;;;;;;7389614;19;20152;-78
2022/09/29 09:06:43;;;;;;;5.77;3.17;;;13.60;99.90;;;;;;7389015;19;20634;-78
2022/09/29 09:09:28;;;;;;;4.13;3.00;;;13.70;99.90;;;;;;7390693;19;20162;-77
2022/09/29 09:12:06;;;;;;;4.28;3.00;;;13.70;99.90;;;;;;7386941;19;20391;-79
2022/09/29 09:14:57;;;;;;;3.67;2.60;;;13.30;99.90;;;;;;7392419;19;20495;-78
2022/09/29 09:17:52;;;;;;;4.87;3.10;;;13.50;99.90;;;;;;7392309;19;20150;-79
2022/09/29 09:20:35;;;;;;;3.30;2.37;;;13.60;99.90;;;;;;7392707;19;20237;-80
2022/09/29 09:23:03;;;;;;;3.47;2.73;;;13.60;99.90;;;;;;7394130;19;20146;-80
2022/09/29 09:25:31;;;;;;;4.50;2.13;;;13.60;99.90;;;;;;7389393;19;20222;-80
2022/09/29 09:28:12;;;;;;;5.83;2.87;;;13.70;99.90;;;;;;7388795;19;20150;-78
2022/09/29 09:30:45;;;;;;;3.50;2.50;;;13.70;99.90;;;;;;7390968;19;20147;-78
2022/09/29 09:33:40;;;;;;;3.25;2.95;;;13.70;99.90;;;;;;7389741;19;20127;-79
2022/09/29 09:36:22;;;;;;;4.20;2.40;;;13.80;99.90;;;;;;7390211;19;20138;-79
2022/09/29 09:38:53;;;;;;;5.35;2.63;;;13.80;99.90;;;;;;7389476;19;20139;-79
2022/09/29 09:41:23;;;;;;;4.63;2.60;;;13.80;99.90;;;;;;7391073;19;20147;-79
2022/09/29 09:43:57;;;;;;;3.13;2.30;;;13.80;99.90;;;;;;7390608;19;20935;-79
2022/09/29 09:46:44;;;;;;;2.73;2.27;;;13.90;99.90;;;;;;7390801;19;20145;-78
2022/09/29 09:49:16;;;;;;;6.13;2.40;;;13.80;99.90;;;;;;7388387;19;20155;-79
2022/09/29 09:51:54;;;;;;;4.07;2.33;;;13.80;99.90;;;;;;7392180;19;20151;-80
2022/09/29 09:54:24;;;;;;;2.13;1.93;;;13.70;99.90;;;;;;7389931;19;20134;-80
2022/09/29 09:57:14;;;;;;;2.67;1.63;;;13.60;99.90;;;;;;7388855;19;20154;-81
2022/09/29 10:00:07;;;;;;;3.77;2.60;;;13.70;99.90;;;;;;7386636;19;20150;-80
2022/09/29 10:02:33;;;;;;;4.15;2.13;;;13.90;99.90;;;;;;7389473;19;20138;-81
2022/09/29 10:04:59;;;;;;;2.97;1.67;;;13.80;99.90;;;;;;7393964;19;20620;-80
2022/09/29 10:07:29;;;;;;;3.63;1.90;;;13.90;99.90;;;;;;7393891;19;20147;-81
2022/09/29 10:10:01;;;;;;;2.33;1.65;;;14.00;99.90;;;;;;7391128;19;20230;-81
2022/09/29 10:12:27;;;;;;;3.07;1.67;;;14.00;99.90;;;;;;7399787;19;20164;-80
2022/09/29 10:15:00;;;;;;;5.75;3.70;;;14.10;99.90;;;;;;7388141;19;20135;-79
2022/09/29 10:17:30;;;;;;;4.80;2.95;;;14.20;99.90;;;;;;7388016;19;20223;-80
2022/09/29 10:20:03;;;;;;;4.43;2.78;;;14.30;99.90;;;;;;7385234;19;20819;-80
2022/09/29 10:22:29;;;;;;;4.28;2.05;;;14.20;99.90;;;;;;7389406;19;20544;-78
2022/09/29 10:25:20;;;;;;;2.35;1.55;;;14.30;99.90;;;;;;7393832;19;20229;-79
2022/09/29 10:28:03;;;;;;;2.08;1.50;;;14.30;99.90;;;;;;7394519;19;20150;-78
2022/09/29 10:30:30;;;;;;;2.38;1.92;;;14.40;99.90;;;;;;7395839;19;20580;-81
2022/09/29 10:32:59;;;;;;;2.85;2.40;;;14.50;99.90;;;;;;7399500;19;20134;-81
2022/09/29 10:35:34;;;;;;;5.32;3.40;;;14.60;99.90;;;;;;7403942;19;20135;-80
2022/09/29 10:38:05;;;;;;;3.87;1.93;;;14.60;99.90;;;;;;7395434;19;20147;-81
2022/09/29 10:40:31;;;;;;;4.30;2.00;;;14.90;99.90;;;;;;7396533;19;20134;-78
2022/09/29 10:42:57;;;;;;;3.83;2.33;;;14.80;99.90;;;;;;7403669;19;20167;-80
2022/09/29 10:45:28;;;;;;;2.88;1.73;;;14.90;99.90;;;;;;7402705;19;20134;-79
2022/09/29 10:47:57;;;;;;;2.08;1.88;;;14.90;99.90;;;;;;7392874;19;20146;-79
2022/09/29 10:50:32;;;;;;;2.08;1.67;;;14.70;99.90;;;;;;7394754;19;20877;-79
2022/09/29 10:53:20;;;;;;;4.20;2.10;;;14.60;99.90;;;;;;7403768;19;20205;-83
2022/09/29 10:55:50;;;;;;;3.33;1.40;;;14.70;99.90;;;;;;7399201;19;20461;-82
2022/09/29 10:58:29;;;;;;;2.75;1.60;;;14.80;99.90;;;;;;7395222;19;20139;-78
2022/09/29 11:01:10;;;;;;;4.32;1.60;;;14.80;99.90;;;;;;7395808;19;20145;-82
2022/09/29 11:03:40;;;;;;;3.15;1.65;;;14.80;99.90;;;;;;7403984;19;20131;-79
2022/09/29 11:06:13;;;;;;;1.63;1.27;;;14.70;99.90;;;;;;7404161;19;20157;-81
2022/09/29 11:09:00;;;;;;;2.00;1.27;;;14.80;99.90;;;;;;7395206;19;20774;-80
2022/09/29 11:11:27;;;;;;;2.75;1.80;;;14.80;99.90;;;;;;7393263;19;20130;-78
2022/09/29 11:13:55;;;;;;;2.22;1.48;;;14.90;99.90;;;;;;7394038;19;20181;-79
2022/09/29 11:16:37;;;;;;;2.45;1.30;;;14.90;99.90;;;;;;7393485;19;20179;-78
2022/09/29 11:19:13;;;;;;;1.50;1.13;;;14.90;99.90;;;;;;7392359;19;20162;-79
2022/09/29 11:21:50;;;;;;;1.65;1.13;;;14.90;99.90;;;;;;7395669;19;20472;-77
2022/09/29 11:24:41;;;;;;;2.85;1.08;;;14.80;99.90;;;;;;7393927;19;20501;-79
2022/09/29 11:27:37;;;;;;;3.45;1.23;;;14.70;99.90;;;;;;7392296;19;20135;-79
2022/09/29 11:30:16;;;;;;;2.50;1.10;;;14.60;99.90;;;;;;7397278;19;20173;-80
2022/09/29 11:33:20;;;;;;;2.75;2.30;;;14.80;99.90;;;;;;7392940;19;20847;-79
2022/09/29 11:35:57;;;;;;;2.72;1.55;;;14.80;99.90;;;;;;7392400;19;20131;-83
2022/09/29 11:38:25;;;;;;;2.75;1.55;;;14.80;99.90;;;;;;7393941;19;20246;-80
2022/09/29 11:41:17;;;;;;;4.38;1.45;;;14.90;99.90;;;;;;7394255;19;20653;-80
2022/09/29 11:43:55;;;;;;;4.45;1.45;;;14.70;99.90;;;;;;7393477;19;20503;-79
2022/09/29 11:46:44;;;;;;;2.03;1.13;;;14.70;99.90;;;;;;7393090;19;20130;-79
2022/09/29 11:49:28;;;;;;;3.63;1.08;;;15.00;99.90;;;;;;7393453;19;20899;-78
2022/09/29 11:52:09;;;;;;;4.25;1.83;;;15.00;99.90;;;;;;7390157;19;20158;-81
2022/09/29 11:54:56;;;;;;;1.52;1.10;;;15.10;99.90;;;;;;7393316;19;20249;-78
2022/09/29 11:57:45;;;;;;;3.20;1.20;;;15.20;99.90;;;;;;7393907;19;20154;-79
2022/09/29 12:00:16;;;;;;;4.40;1.47;;;15.00;99.90;;;;;;7389146;19;20540;-78
2022/09/29 12:02:58;;;;;;;1.92;1.17;;;15.20;99.90;;;;;;7391004;19;20126;-79
2022/09/29 12:05:42;;;;;;;5.43;1.67;;;15.20;99.90;;;;;;7392518;19;20146;-79
2022/09/29 12:08:20;;;;;;;2.95;1.35;;;15.10;99.90;;;;;;7391963;19;20146;-79
2022/09/29 12:10:53;;;;;;;2.08;1.10;;;15.10;99.90;;;;;;7391565;19;20498;-79
2022/09/29 12:13:28;;;;;;;3.05;1.17;;;15.10;99.90;;;;;;7393121;19;20169;-78
2022/09/29 12:16:01;;;;;;;2.28;1.27;;;15.10;99.90;;;;;;7392603;19;20495;-80
2022/09/29 12:18:46;;;;;;;3.03;1.10;;;15.00;99.90;;;;;;7389366;19;20135;-79
2022/09/29 12:21:27;;;;;;;3.33;1.20;;;15.00;99.90;;;;;;7390729;19;20138;-80
2022/09/29 12:23:54;;;;;;;1.08;0.95;;;15.00;99.90;;;;;;7392435;19;20475;-78
2022/09/29 12:26:23;;;;;;;2.38;0.90;;;15.10;99.90;;;;;;7389592;19;20151;-79
2022/09/29 12:28:57;;;;;;;2.35;1.30;;;15.10;99.90;;;;;;7390887;19;20138;-80
2022/09/29 12:31:32;;;;;;;2.30;1.20;;;15.20;99.90;;;;;;7388666;19;20387;-79
2022/09/29 12:34:07;;;;;;;2.53;1.10;;;15.30;99.90;;;;;;7393318;19;20141;-78
2022/09/29 12:37:04;;;;;;;1.52;1.13;;;15.30;99.90;;;;;;7390896;19;20138;-79
2022/09/29 12:39:44;;;;;;;3.08;1.08;;;15.30;99.90;;;;;;7389296;19;20145;-80
2022/09/29 12:42:36;;;;;;;1.60;1.00;;;15.30;99.90;;;;;;7391038;19;20149;-79
2022/09/29 12:45:34;;;;;;;1.90;1.10;;;15.30;99.90;;;;;;7389254;19;20135;-79
2022/09/29 12:48:30;;;;;;;1.67;0.98;;;15.20;99.90;;;;;;7390426;19;20619;-79
2022/09/29 12:51:30;;;;;;;4.13;1.40;;;15.30;99.90;;;;;;7390590;19;20141;-78
2022/09/29 12:54:07;;;;;;;3.55;1.10;;;15.20;99.90;;;;;;7389943;19;20139;-78
2022/09/29 12:56:41;;;;;;;4.22;1.50;;;15.10;99.90;;;;;;7388701;19;20139;-79
2022/09/29 12:59:23;;;;;;;2.55;1.05;;;15.20;99.90;;;;;;7387484;19;20154;-79
2022/09/29 13:01:54;;;;;;;1.67;0.90;;;15.10;99.90;;;;;;7391049;19;20225;-78
2022/09/29 13:04:36;;;;;;;3.22;1.00;;;15.20;99.90;;;;;;7389691;19;20151;-79
2022/09/29 13:07:31;;;;;;;1.08;0.98;;;15.30;99.90;;;;;;7391596;19;20263;-79
2022/09/29 13:10:22;;;;;;;3.05;1.60;;;15.40;99.90;;;;;;7391199;19;20138;-79
2022/09/29 13:13:07;;;;;;;2.42;1.30;;;15.40;99.90;;;;;;7389671;19;20135;-80
2022/09/29 13:16:04;;;;;;;2.30;1.20;;;15.40;99.90;;;;;;7392482;19;20194;-80